sensor_id;sensor_type;location;lat;lon;timestamp;temperature;humidity
38938;DHT22;24727;51.974;20.868;2023-07-29T00:01:51;16.60;48.20
38938;DHT22;24727;51.974;20.868;2023-07-29T00:04:19;16.70;48.90
38938;DHT22;24727;51.974;20.868;2023-07-29T00:06:46;16.70;49.60
38938;DHT22;24727;51.974;20.868;2023-07-29T00:09:12;16.70;50.20
38938;DHT22;24727;51.974;20.868;2023-07-29T00:11:38;16.70;50.10
38938;DHT22;24727;51.974;20.868;2023-07-29T00:14:04;16.80;50.60
38938;DHT22;24727;51.974;20.868;2023-07-29T00:16:32;16.80;50.00
38938;DHT22;24727;51.974;20.868;2023-07-29T00:19:04;16.70;50.20
38938;DHT22;24727;51.974;20.868;2023-07-29T00:21:30;16.80;50.00
38938;DHT22;24727;51.974;20.868;2023-07-29T00:23:57;16.80;50.50
38938;DHT22;24727;51.974;20.868;2023-07-29T00:26:23;16.80;51.70
38938;DHT22;24727;51.974;20.868;2023-07-29T00:28:52;16.80;51.50
38938;DHT22;24727;51.974;20.868;2023-07-29T00:31:17;16.80;53.20
38938;DHT22;24727;51.974;20.868;2023-07-29T00:33:43;16.80;52.80
38938;DHT22;24727;51.974;20.868;2023-07-29T00:36:09;16.80;53.10
38938;DHT22;24727;51.974;20.868;2023-07-29T00:38:36;16.80;53.60
38938;DHT22;24727;51.974;20.868;2023-07-29T00:41:02;16.80;54.00
38938;DHT22;24727;51.974;20.868;2023-07-29T00:43:30;16.80;54.60
38938;DHT22;24727;51.974;20.868;2023-07-29T00:45:56;16.80;54.00
38938;DHT22;24727;51.974;20.868;2023-07-29T00:48:24;16.80;54.70
38938;DHT22;24727;51.974;20.868;2023-07-29T00:50:51;16.80;54.70
38938;DHT22;24727;51.974;20.868;2023-07-29T00:53:17;16.80;54.80
38938;DHT22;24727;51.974;20.868;2023-07-29T00:55:43;16.80;54.30
38938;DHT22;24727;51.974;20.868;2023-07-29T00:58:10;16.80;54.40
38938;DHT22;24727;51.974;20.868;2023-07-29T01:00:36;16.80;54.10
38938;DHT22;24727;51.974;20.868;2023-07-29T01:03:03;16.80;54.10
38938;DHT22;24727;51.974;20.868;2023-07-29T01:08:37;16.80;54.40
38938;DHT22;24727;51.974;20.868;2023-07-29T01:12:18;16.70;54.20
38938;DHT22;24727;51.974;20.868;2023-07-29T01:14:29;16.70;54.50
38938;DHT22;24727;51.974;20.868;2023-07-29T01:17:02;16.70;54.80
38938;DHT22;24727;51.974;20.868;2023-07-29T01:22:04;16.60;54.90
38938;DHT22;24727;51.974;20.868;2023-07-29T01:24:30;16.60;54.30
38938;DHT22;24727;51.974;20.868;2023-07-29T01:26:56;16.60;54.40
38938;DHT22;24727;51.974;20.868;2023-07-29T01:29:22;16.60;54.40
38938;DHT22;24727;51.974;20.868;2023-07-29T01:31:54;16.60;54.50
38938;DHT22;24727;51.974;20.868;2023-07-29T01:34:39;16.60;54.00
38938;DHT22;24727;51.974;20.868;2023-07-29T01:37:09;16.50;53.70
38938;DHT22;24727;51.974;20.868;2023-07-29T01:39:37;16.50;53.50
38938;DHT22;24727;51.974;20.868;2023-07-29T01:42:04;16.50;53.50
38938;DHT22;24727;51.974;20.868;2023-07-29T01:44:32;16.50;52.90
38938;DHT22;24727;51.974;20.868;2023-07-29T01:46:58;16.40;51.80
38938;DHT22;24727;51.974;20.868;2023-07-29T01:49:25;16.40;51.50
38938;DHT22;24727;51.974;20.868;2023-07-29T01:51:52;16.40;50.00
38938;DHT22;24727;51.974;20.868;2023-07-29T01:54:19;16.40;50.10
38938;DHT22;24727;51.974;20.868;2023-07-29T01:56:45;16.40;50.30
38938;DHT22;24727;51.974;20.868;2023-07-29T01:59:11;16.30;49.40
38938;DHT22;24727;51.974;20.868;2023-07-29T02:01:39;16.30;48.90
38938;DHT22;24727;51.974;20.868;2023-07-29T02:04:05;16.30;49.00
38938;DHT22;24727;51.974;20.868;2023-07-29T02:06:31;16.20;49.60
38938;DHT22;24727;51.974;20.868;2023-07-29T02:08:57;16.30;49.20
38938;DHT22;24727;51.974;20.868;2023-07-29T02:11:24;16.20;45.80
38938;DHT22;24727;51.974;20.868;2023-07-29T02:13:56;16.10;46.00
38938;DHT22;24727;51.974;20.868;2023-07-29T02:16:22;16.20;44.60
38938;DHT22;24727;51.974;20.868;2023-07-29T02:18:48;16.10;42.00
38938;DHT22;24727;51.974;20.868;2023-07-29T02:21:16;16.10;39.80
38938;DHT22;24727;51.974;20.868;2023-07-29T02:23:42;16.10;41.90
38938;DHT22;24727;51.974;20.868;2023-07-29T02:26:09;16.20;46.00
38938;DHT22;24727;51.974;20.868;2023-07-29T02:28:36;16.30;49.20
38938;DHT22;24727;51.974;20.868;2023-07-29T02:31:16;16.30;50.30
38938;DHT22;24727;51.974;20.868;2023-07-29T02:33:45;16.30;52.90
38938;DHT22;24727;51.974;20.868;2023-07-29T02:36:12;16.20;53.20
38938;DHT22;24727;51.974;20.868;2023-07-29T02:38:40;16.30;54.90
38938;DHT22;24727;51.974;20.868;2023-07-29T02:41:08;16.30;55.40
38938;DHT22;24727;51.974;20.868;2023-07-29T02:43:36;16.30;55.40
38938;DHT22;24727;51.974;20.868;2023-07-29T02:46:03;16.30;56.30
38938;DHT22;24727;51.974;20.868;2023-07-29T02:48:30;16.30;56.50
38938;DHT22;24727;51.974;20.868;2023-07-29T02:50:56;16.30;56.10
38938;DHT22;24727;51.974;20.868;2023-07-29T02:53:23;16.30;56.40
38938;DHT22;24727;51.974;20.868;2023-07-29T02:55:49;16.30;56.30
38938;DHT22;24727;51.974;20.868;2023-07-29T02:58:15;16.20;56.30
38938;DHT22;24727;51.974;20.868;2023-07-29T03:00:41;16.30;56.60
38938;DHT22;24727;51.974;20.868;2023-07-29T03:03:08;16.30;55.60
38938;DHT22;24727;51.974;20.868;2023-07-29T03:05:34;16.30;55.00
38938;DHT22;24727;51.974;20.868;2023-07-29T03:08:00;16.30;55.00
38938;DHT22;24727;51.974;20.868;2023-07-29T03:10:26;16.30;54.80
38938;DHT22;24727;51.974;20.868;2023-07-29T03:12:56;16.30;54.50
38938;DHT22;24727;51.974;20.868;2023-07-29T03:15:25;16.40;54.10
38938;DHT22;24727;51.974;20.868;2023-07-29T03:17:52;16.30;53.60
38938;DHT22;24727;51.974;20.868;2023-07-29T03:20:19;16.40;53.10
38938;DHT22;24727;51.974;20.868;2023-07-29T03:22:46;16.40;52.30
38938;DHT22;24727;51.974;20.868;2023-07-29T03:25:13;16.30;52.00
38938;DHT22;24727;51.974;20.868;2023-07-29T03:27:39;16.30;51.60
38938;DHT22;24727;51.974;20.868;2023-07-29T03:30:09;16.30;51.30
38938;DHT22;24727;51.974;20.868;2023-07-29T03:32:35;16.30;51.40
38938;DHT22;24727;51.974;20.868;2023-07-29T03:35:02;16.30;51.70
38938;DHT22;24727;51.974;20.868;2023-07-29T03:37:29;16.40;51.80
38938;DHT22;24727;51.974;20.868;2023-07-29T03:39:55;16.40;51.30
38938;DHT22;24727;51.974;20.868;2023-07-29T03:42:21;16.40;52.10
38938;DHT22;24727;51.974;20.868;2023-07-29T03:44:47;16.40;49.90
38938;DHT22;24727;51.974;20.868;2023-07-29T03:47:12;16.40;50.00
38938;DHT22;24727;51.974;20.868;2023-07-29T03:49:38;16.40;50.40
38938;DHT22;24727;51.974;20.868;2023-07-29T03:52:05;16.40;49.80
38938;DHT22;24727;51.974;20.868;2023-07-29T03:54:32;16.40;49.70
38938;DHT22;24727;51.974;20.868;2023-07-29T03:56:58;16.40;48.60
38938;DHT22;24727;51.974;20.868;2023-07-29T03:59:24;16.50;48.10
38938;DHT22;24727;51.974;20.868;2023-07-29T04:01:51;16.40;47.20
38938;DHT22;24727;51.974;20.868;2023-07-29T04:04:16;16.40;45.90
38938;DHT22;24727;51.974;20.868;2023-07-29T04:06:42;16.40;44.50
38938;DHT22;24727;51.974;20.868;2023-07-29T04:09:14;16.40;43.30
38938;DHT22;24727;51.974;20.868;2023-07-29T04:11:42;16.50;44.60
38938;DHT22;24727;51.974;20.868;2023-07-29T04:14:14;16.60;44.30
38938;DHT22;24727;51.974;20.868;2023-07-29T04:16:40;16.70;42.90
38938;DHT22;24727;51.974;20.868;2023-07-29T04:19:06;16.70;41.30
38938;DHT22;24727;51.974;20.868;2023-07-29T04:21:32;16.70;38.90
38938;DHT22;24727;51.974;20.868;2023-07-29T04:23:58;16.80;37.20
38938;DHT22;24727;51.974;20.868;2023-07-29T04:26:24;16.70;31.90
38938;DHT22;24727;51.974;20.868;2023-07-29T04:28:50;16.60;29.70
38938;DHT22;24727;51.974;20.868;2023-07-29T04:31:17;16.60;26.50
38938;DHT22;24727;51.974;20.868;2023-07-29T04:33:44;16.70;26.80
38938;DHT22;24727;51.974;20.868;2023-07-29T04:36:10;16.70;22.80
38938;DHT22;24727;51.974;20.868;2023-07-29T04:38:37;16.70;22.40
38938;DHT22;24727;51.974;20.868;2023-07-29T04:41:04;16.70;22.10
38938;DHT22;24727;51.974;20.868;2023-07-29T04:43:32;16.80;24.30
38938;DHT22;24727;51.974;20.868;2023-07-29T04:46:01;17.00;19.60
38938;DHT22;24727;51.974;20.868;2023-07-29T04:48:27;17.20;16.60
38938;DHT22;24727;51.974;20.868;2023-07-29T04:50:54;17.60;14.60
38938;DHT22;24727;51.974;20.868;2023-07-29T04:53:19;17.70;1.00
38938;DHT22;24727;51.974;20.868;2023-07-29T04:55:46;17.70;1.00
38938;DHT22;24727;51.974;20.868;2023-07-29T04:58:12;17.70;1.00
38938;DHT22;24727;51.974;20.868;2023-07-29T05:00:46;18.00;1.00
38938;DHT22;24727;51.974;20.868;2023-07-29T05:03:13;18.10;1.00
38938;DHT22;24727;51.974;20.868;2023-07-29T05:05:39;18.00;1.00
38938;DHT22;24727;51.974;20.868;2023-07-29T05:08:05;18.10;1.00
38938;DHT22;24727;51.974;20.868;2023-07-29T05:10:31;18.10;1.00
38938;DHT22;24727;51.974;20.868;2023-07-29T05:12:58;18.30;1.00
38938;DHT22;24727;51.974;20.868;2023-07-29T05:15:23;18.50;1.00
38938;DHT22;24727;51.974;20.868;2023-07-29T05:17:49;18.70;1.00
38938;DHT22;24727;51.974;20.868;2023-07-29T05:20:18;18.60;1.00
38938;DHT22;24727;51.974;20.868;2023-07-29T05:22:44;18.70;1.00
38938;DHT22;24727;51.974;20.868;2023-07-29T05:25:10;19.00;1.00
38938;DHT22;24727;51.974;20.868;2023-07-29T05:27:36;18.90;1.00
38938;DHT22;24727;51.974;20.868;2023-07-29T05:30:02;19.00;1.00
38938;DHT22;24727;51.974;20.868;2023-07-29T05:32:29;19.30;1.00
38938;DHT22;24727;51.974;20.868;2023-07-29T05:34:55;19.80;1.00
38938;DHT22;24727;51.974;20.868;2023-07-29T05:37:21;20.00;1.00
38938;DHT22;24727;51.974;20.868;2023-07-29T05:39:47;19.80;1.00
38938;DHT22;24727;51.974;20.868;2023-07-29T05:42:13;19.70;1.00
38938;DHT22;24727;51.974;20.868;2023-07-29T05:44:39;19.60;1.00
38938;DHT22;24727;51.974;20.868;2023-07-29T05:47:05;19.60;1.00
38938;DHT22;24727;51.974;20.868;2023-07-29T05:49:31;19.80;1.00
38938;DHT22;24727;51.974;20.868;2023-07-29T05:51:57;19.40;1.00
38938;DHT22;24727;51.974;20.868;2023-07-29T05:54:23;19.30;1.00
38938;DHT22;24727;51.974;20.868;2023-07-29T05:56:49;19.50;1.00
38938;DHT22;24727;51.974;20.868;2023-07-29T05:59:16;19.60;1.00
38938;DHT22;24727;51.974;20.868;2023-07-29T06:01:42;19.60;1.00
38938;DHT22;24727;51.974;20.868;2023-07-29T06:04:08;19.50;1.00
38938;DHT22;24727;51.974;20.868;2023-07-29T06:06:34;19.60;1.00
38938;DHT22;24727;51.974;20.868;2023-07-29T06:09:02;19.60;1.00
38938;DHT22;24727;51.974;20.868;2023-07-29T06:11:28;19.70;1.00
38938;DHT22;24727;51.974;20.868;2023-07-29T06:13:54;19.80;1.00
38938;DHT22;24727;51.974;20.868;2023-07-29T06:16:21;19.80;1.00
38938;DHT22;24727;51.974;20.868;2023-07-29T06:18:47;19.90;1.00
38938;DHT22;24727;51.974;20.868;2023-07-29T06:21:13;20.00;1.00
38938;DHT22;24727;51.974;20.868;2023-07-29T06:23:43;20.30;1.00
38938;DHT22;24727;51.974;20.868;2023-07-29T06:26:10;20.70;1.00
38938;DHT22;24727;51.974;20.868;2023-07-29T06:28:38;21.20;1.00
38938;DHT22;24727;51.974;20.868;2023-07-29T06:31:04;21.80;1.00
38938;DHT22;24727;51.974;20.868;2023-07-29T06:33:30;22.20;1.00
38938;DHT22;24727;51.974;20.868;2023-07-29T06:35:57;22.20;1.00
38938;DHT22;24727;51.974;20.868;2023-07-29T06:38:24;21.80;1.00
38938;DHT22;24727;51.974;20.868;2023-07-29T06:40:51;21.50;1.00
38938;DHT22;24727;51.974;20.868;2023-07-29T06:43:20;21.50;1.00
38938;DHT22;24727;51.974;20.868;2023-07-29T06:45:47;21.70;1.00
38938;DHT22;24727;51.974;20.868;2023-07-29T06:48:16;21.80;1.00
38938;DHT22;24727;51.974;20.868;2023-07-29T06:50:42;21.70;1.00
38938;DHT22;24727;51.974;20.868;2023-07-29T06:53:09;21.70;1.00
38938;DHT22;24727;51.974;20.868;2023-07-29T06:55:35;21.80;1.00
38938;DHT22;24727;51.974;20.868;2023-07-29T06:58:01;21.90;1.00
38938;DHT22;24727;51.974;20.868;2023-07-29T07:00:27;22.50;1.00
38938;DHT22;24727;51.974;20.868;2023-07-29T07:02:54;22.90;1.00
38938;DHT22;24727;51.974;20.868;2023-07-29T07:05:20;23.00;1.00
38938;DHT22;24727;51.974;20.868;2023-07-29T07:07:46;23.10;1.00
38938;DHT22;24727;51.974;20.868;2023-07-29T07:10:13;23.40;1.00
38938;DHT22;24727;51.974;20.868;2023-07-29T07:12:39;23.70;1.00
38938;DHT22;24727;51.974;20.868;2023-07-29T07:15:06;24.30;1.00
38938;DHT22;24727;51.974;20.868;2023-07-29T07:17:32;24.70;1.00
38938;DHT22;24727;51.974;20.868;2023-07-29T07:19:58;24.00;1.00
38938;DHT22;24727;51.974;20.868;2023-07-29T07:22:26;24.40;1.00
38938;DHT22;24727;51.974;20.868;2023-07-29T07:24:52;24.70;1.00
38938;DHT22;24727;51.974;20.868;2023-07-29T07:27:20;25.20;1.00
38938;DHT22;24727;51.974;20.868;2023-07-29T07:29:46;25.70;1.00
38938;DHT22;24727;51.974;20.868;2023-07-29T07:32:12;25.70;1.00
38938;DHT22;24727;51.974;20.868;2023-07-29T07:34:38;25.60;1.00
38938;DHT22;24727;51.974;20.868;2023-07-29T07:37:06;25.10;1.00
38938;DHT22;24727;51.974;20.868;2023-07-29T07:39:32;24.50;1.00
38938;DHT22;24727;51.974;20.868;2023-07-29T07:41:59;24.40;1.00
38938;DHT22;24727;51.974;20.868;2023-07-29T07:44:25;24.60;1.00
38938;DHT22;24727;51.974;20.868;2023-07-29T07:46:52;24.70;1.00
38938;DHT22;24727;51.974;20.868;2023-07-29T07:49:22;24.80;1.00
38938;DHT22;24727;51.974;20.868;2023-07-29T07:51:48;25.00;1.00
38938;DHT22;24727;51.974;20.868;2023-07-29T07:54:13;25.20;1.00
38938;DHT22;24727;51.974;20.868;2023-07-29T07:56:40;25.70;1.00
38938;DHT22;24727;51.974;20.868;2023-07-29T07:59:07;26.30;1.00
38938;DHT22;24727;51.974;20.868;2023-07-29T08:01:38;26.80;1.00
38938;DHT22;24727;51.974;20.868;2023-07-29T08:04:04;27.30;1.00
38938;DHT22;24727;51.974;20.868;2023-07-29T08:06:32;27.70;1.00
38938;DHT22;24727;51.974;20.868;2023-07-29T08:09:01;26.60;1.00
38938;DHT22;24727;51.974;20.868;2023-07-29T08:11:27;26.10;1.00
38938;DHT22;24727;51.974;20.868;2023-07-29T08:13:52;26.60;1.00
38938;DHT22;24727;51.974;20.868;2023-07-29T08:16:18;26.20;1.00
38938;DHT22;24727;51.974;20.868;2023-07-29T08:18:46;26.20;1.00
38938;DHT22;24727;51.974;20.868;2023-07-29T08:21:13;25.80;1.00
38938;DHT22;24727;51.974;20.868;2023-07-29T08:23:38;26.70;1.00
38938;DHT22;24727;51.974;20.868;2023-07-29T08:26:05;27.40;1.00
38938;DHT22;24727;51.974;20.868;2023-07-29T08:28:37;27.70;1.00
38938;DHT22;24727;51.974;20.868;2023-07-29T08:31:04;27.10;1.00
38938;DHT22;24727;51.974;20.868;2023-07-29T08:33:30;26.70;1.00
38938;DHT22;24727;51.974;20.868;2023-07-29T08:35:57;26.50;1.00
38938;DHT22;24727;51.974;20.868;2023-07-29T08:38:23;26.90;1.00
38938;DHT22;24727;51.974;20.868;2023-07-29T08:41:13;27.20;1.00
38938;DHT22;24727;51.974;20.868;2023-07-29T08:43:43;27.50;1.00
38938;DHT22;24727;51.974;20.868;2023-07-29T08:46:09;26.80;1.00
38938;DHT22;24727;51.974;20.868;2023-07-29T08:48:43;27.10;1.00
38938;DHT22;24727;51.974;20.868;2023-07-29T08:51:12;27.00;1.00
38938;DHT22;24727;51.974;20.868;2023-07-29T08:53:39;27.40;1.00
38938;DHT22;24727;51.974;20.868;2023-07-29T08:56:07;28.30;1.00
38938;DHT22;24727;51.974;20.868;2023-07-29T08:58:33;28.90;1.00
38938;DHT22;24727;51.974;20.868;2023-07-29T09:01:00;28.50;1.00
38938;DHT22;24727;51.974;20.868;2023-07-29T09:03:27;28.90;1.00
38938;DHT22;24727;51.974;20.868;2023-07-29T09:05:53;28.80;1.00
38938;DHT22;24727;51.974;20.868;2023-07-29T09:08:21;28.40;1.00
38938;DHT22;24727;51.974;20.868;2023-07-29T09:10:48;28.70;1.00
38938;DHT22;24727;51.974;20.868;2023-07-29T09:13:14;28.80;1.00
38938;DHT22;24727;51.974;20.868;2023-07-29T09:15:40;29.00;1.00
38938;DHT22;24727;51.974;20.868;2023-07-29T09:18:20;29.30;1.00
38938;DHT22;24727;51.974;20.868;2023-07-29T09:20:48;30.10;1.00
38938;DHT22;24727;51.974;20.868;2023-07-29T09:23:14;30.70;1.00
38938;DHT22;24727;51.974;20.868;2023-07-29T09:25:40;30.90;1.00
38938;DHT22;24727;51.974;20.868;2023-07-29T09:28:12;30.20;1.00
38938;DHT22;24727;51.974;20.868;2023-07-29T09:30:39;30.20;1.00
38938;DHT22;24727;51.974;20.868;2023-07-29T09:33:06;30.40;1.00
38938;DHT22;24727;51.974;20.868;2023-07-29T09:35:37;30.00;1.00
38938;DHT22;24727;51.974;20.868;2023-07-29T09:38:14;30.10;1.00
38938;DHT22;24727;51.974;20.868;2023-07-29T09:40:42;30.40;1.00
38938;DHT22;24727;51.974;20.868;2023-07-29T09:43:11;30.60;1.00
38938;DHT22;24727;51.974;20.868;2023-07-29T09:45:38;30.00;1.00
38938;DHT22;24727;51.974;20.868;2023-07-29T09:48:05;29.30;1.00
38938;DHT22;24727;51.974;20.868;2023-07-29T09:50:35;29.70;1.00
38938;DHT22;24727;51.974;20.868;2023-07-29T09:53:02;29.80;1.00
38938;DHT22;24727;51.974;20.868;2023-07-29T09:55:28;29.90;1.00
38938;DHT22;24727;51.974;20.868;2023-07-29T09:57:59;30.10;1.00
38938;DHT22;24727;51.974;20.868;2023-07-29T10:00:31;30.10;1.00
38938;DHT22;24727;51.974;20.868;2023-07-29T10:02:59;30.30;1.00
38938;DHT22;24727;51.974;20.868;2023-07-29T10:05:29;30.40;1.00
38938;DHT22;24727;51.974;20.868;2023-07-29T10:07:56;30.20;1.00
38938;DHT22;24727;51.974;20.868;2023-07-29T10:10:23;30.80;1.00
38938;DHT22;24727;51.974;20.868;2023-07-29T10:12:50;31.10;1.00
38938;DHT22;24727;51.974;20.868;2023-07-29T10:15:17;29.60;1.00
38938;DHT22;24727;51.974;20.868;2023-07-29T10:17:43;28.70;1.00
38938;DHT22;24727;51.974;20.868;2023-07-29T10:20:11;28.70;1.00
38938;DHT22;24727;51.974;20.868;2023-07-29T10:22:42;28.20;1.00
38938;DHT22;24727;51.974;20.868;2023-07-29T10:25:21;28.60;1.00
38938;DHT22;24727;51.974;20.868;2023-07-29T10:27:53;29.00;1.00
38938;DHT22;24727;51.974;20.868;2023-07-29T10:30:21;29.40;1.00
38938;DHT22;24727;51.974;20.868;2023-07-29T10:32:49;29.70;1.00
38938;DHT22;24727;51.974;20.868;2023-07-29T10:35:16;30.10;1.00
38938;DHT22;24727;51.974;20.868;2023-07-29T10:37:43;30.40;1.00
38938;DHT22;24727;51.974;20.868;2023-07-29T10:40:11;30.50;1.00
38938;DHT22;24727;51.974;20.868;2023-07-29T10:42:38;30.80;1.00
38938;DHT22;24727;51.974;20.868;2023-07-29T10:45:24;31.00;1.00
38938;DHT22;24727;51.974;20.868;2023-07-29T10:47:50;30.50;1.00
38938;DHT22;24727;51.974;20.868;2023-07-29T10:50:21;30.50;1.00
38938;DHT22;24727;51.974;20.868;2023-07-29T10:52:56;30.00;1.00
38938;DHT22;24727;51.974;20.868;2023-07-29T10:55:33;30.10;1.00
38938;DHT22;24727;51.974;20.868;2023-07-29T10:58:07;30.60;1.00
38938;DHT22;24727;51.974;20.868;2023-07-29T11:00:34;31.00;1.00
38938;DHT22;24727;51.974;20.868;2023-07-29T11:03:04;31.40;1.00
38938;DHT22;24727;51.974;20.868;2023-07-29T11:05:49;31.10;1.00
38938;DHT22;24727;51.974;20.868;2023-07-29T11:08:36;31.40;1.00
38938;DHT22;24727;51.974;20.868;2023-07-29T11:11:08;31.60;1.00
38938;DHT22;24727;51.974;20.868;2023-07-29T11:13:36;31.80;1.00
38938;DHT22;24727;51.974;20.868;2023-07-29T11:16:03;31.10;1.00
38938;DHT22;24727;51.974;20.868;2023-07-29T11:18:31;31.30;1.00
38938;DHT22;24727;51.974;20.868;2023-07-29T11:20:59;31.40;1.00
38938;DHT22;24727;51.974;20.868;2023-07-29T11:23:32;31.10;1.00
38938;DHT22;24727;51.974;20.868;2023-07-29T11:25:59;31.30;1.00
38938;DHT22;24727;51.974;20.868;2023-07-29T11:28:26;31.30;1.00
38938;DHT22;24727;51.974;20.868;2023-07-29T11:30:52;31.40;1.00
38938;DHT22;24727;51.974;20.868;2023-07-29T11:33:25;31.50;1.00
38938;DHT22;24727;51.974;20.868;2023-07-29T11:35:51;31.70;1.00
38938;DHT22;24727;51.974;20.868;2023-07-29T11:38:20;31.80;1.00
38938;DHT22;24727;51.974;20.868;2023-07-29T11:40:57;31.90;1.00
38938;DHT22;24727;51.974;20.868;2023-07-29T11:43:24;32.10;1.00
38938;DHT22;24727;51.974;20.868;2023-07-29T11:45:51;32.20;1.00
38938;DHT22;24727;51.974;20.868;2023-07-29T11:48:18;32.30;1.00
38938;DHT22;24727;51.974;20.868;2023-07-29T11:50:45;32.10;1.00
38938;DHT22;24727;51.974;20.868;2023-07-29T11:53:12;32.00;1.00
38938;DHT22;24727;51.974;20.868;2023-07-29T11:55:39;30.90;1.00
38938;DHT22;24727;51.974;20.868;2023-07-29T11:58:07;29.70;1.00
38938;DHT22;24727;51.974;20.868;2023-07-29T12:00:33;30.60;1.00
38938;DHT22;24727;51.974;20.868;2023-07-29T12:03:00;31.40;1.00
38938;DHT22;24727;51.974;20.868;2023-07-29T12:05:26;31.80;1.00
38938;DHT22;24727;51.974;20.868;2023-07-29T12:07:55;32.20;1.00
38938;DHT22;24727;51.974;20.868;2023-07-29T12:10:21;32.70;1.00
38938;DHT22;24727;51.974;20.868;2023-07-29T12:12:49;32.30;1.00
38938;DHT22;24727;51.974;20.868;2023-07-29T12:15:26;32.70;1.00
38938;DHT22;24727;51.974;20.868;2023-07-29T12:17:54;31.30;1.00
38938;DHT22;24727;51.974;20.868;2023-07-29T12:20:22;31.70;1.00
38938;DHT22;24727;51.974;20.868;2023-07-29T12:22:55;31.90;1.00
38938;DHT22;24727;51.974;20.868;2023-07-29T12:25:22;32.20;1.00
38938;DHT22;24727;51.974;20.868;2023-07-29T12:27:49;32.10;1.00
38938;DHT22;24727;51.974;20.868;2023-07-29T12:30:16;32.50;1.00
38938;DHT22;24727;51.974;20.868;2023-07-29T12:32:46;32.80;1.00
38938;DHT22;24727;51.974;20.868;2023-07-29T12:35:13;33.20;1.00
38938;DHT22;24727;51.974;20.868;2023-07-29T12:37:39;32.90;1.00
38938;DHT22;24727;51.974;20.868;2023-07-29T12:40:24;32.50;1.00
38938;DHT22;24727;51.974;20.868;2023-07-29T12:42:51;31.20;1.00
38938;DHT22;24727;51.974;20.868;2023-07-29T12:45:17;31.30;1.00
38938;DHT22;24727;51.974;20.868;2023-07-29T12:47:43;30.80;1.00
38938;DHT22;24727;51.974;20.868;2023-07-29T12:50:11;31.10;1.00
38938;DHT22;24727;51.974;20.868;2023-07-29T12:52:37;32.10;1.00
38938;DHT22;24727;51.974;20.868;2023-07-29T12:55:04;32.50;1.00
38938;DHT22;24727;51.974;20.868;2023-07-29T12:57:31;32.60;1.00
38938;DHT22;24727;51.974;20.868;2023-07-29T12:59:57;33.00;1.00
38938;DHT22;24727;51.974;20.868;2023-07-29T13:02:23;32.50;1.00
38938;DHT22;24727;51.974;20.868;2023-07-29T13:04:50;33.00;1.00
38938;DHT22;24727;51.974;20.868;2023-07-29T13:07:16;31.70;1.00
38938;DHT22;24727;51.974;20.868;2023-07-29T13:09:42;32.10;1.00
38938;DHT22;24727;51.974;20.868;2023-07-29T13:12:08;33.00;1.00
38938;DHT22;24727;51.974;20.868;2023-07-29T13:14:34;33.10;1.00
38938;DHT22;24727;51.974;20.868;2023-07-29T13:17:00;32.40;1.00
38938;DHT22;24727;51.974;20.868;2023-07-29T13:19:26;30.70;1.00
38938;DHT22;24727;51.974;20.868;2023-07-29T13:21:52;29.80;1.00
38938;DHT22;24727;51.974;20.868;2023-07-29T13:24:19;30.50;1.00
38938;DHT22;24727;51.974;20.868;2023-07-29T13:26:45;30.20;1.00
38938;DHT22;24727;51.974;20.868;2023-07-29T13:29:12;30.00;1.00
38938;DHT22;24727;51.974;20.868;2023-07-29T13:31:38;30.70;1.00
38938;DHT22;24727;51.974;20.868;2023-07-29T13:34:05;31.20;1.00
38938;DHT22;24727;51.974;20.868;2023-07-29T13:36:37;31.90;1.00
38938;DHT22;24727;51.974;20.868;2023-07-29T13:39:03;31.20;1.00
38938;DHT22;24727;51.974;20.868;2023-07-29T13:41:29;31.00;1.00
38938;DHT22;24727;51.974;20.868;2023-07-29T13:43:55;30.90;1.00
38938;DHT22;24727;51.974;20.868;2023-07-29T13:46:21;31.30;1.00
38938;DHT22;24727;51.974;20.868;2023-07-29T13:48:47;31.90;1.00
38938;DHT22;24727;51.974;20.868;2023-07-29T13:51:13;32.20;1.00
38938;DHT22;24727;51.974;20.868;2023-07-29T13:53:39;32.60;1.00
38938;DHT22;24727;51.974;20.868;2023-07-29T13:56:05;32.60;1.00
38938;DHT22;24727;51.974;20.868;2023-07-29T13:58:32;32.50;1.00
38938;DHT22;24727;51.974;20.868;2023-07-29T14:00:57;32.50;1.00
38938;DHT22;24727;51.974;20.868;2023-07-29T14:03:23;32.00;1.00
38938;DHT22;24727;51.974;20.868;2023-07-29T14:05:50;32.00;1.00
38938;DHT22;24727;51.974;20.868;2023-07-29T14:08:17;31.50;1.00
38938;DHT22;24727;51.974;20.868;2023-07-29T14:10:43;31.70;1.00
38938;DHT22;24727;51.974;20.868;2023-07-29T14:13:10;31.20;1.00
38938;DHT22;24727;51.974;20.868;2023-07-29T14:15:37;30.70;1.00
38938;DHT22;24727;51.974;20.868;2023-07-29T14:18:03;30.80;1.00
38938;DHT22;24727;51.974;20.868;2023-07-29T14:20:28;31.10;1.00
38938;DHT22;24727;51.974;20.868;2023-07-29T14:22:54;31.30;1.00
38938;DHT22;24727;51.974;20.868;2023-07-29T14:25:20;31.50;1.00
38938;DHT22;24727;51.974;20.868;2023-07-29T14:27:46;31.70;1.00
38938;DHT22;24727;51.974;20.868;2023-07-29T14:30:12;31.80;1.00
38938;DHT22;24727;51.974;20.868;2023-07-29T14:32:38;31.90;1.00
38938;DHT22;24727;51.974;20.868;2023-07-29T14:35:05;32.10;1.00
38938;DHT22;24727;51.974;20.868;2023-07-29T14:37:31;32.10;1.00
38938;DHT22;24727;51.974;20.868;2023-07-29T14:40:01;32.10;1.00
38938;DHT22;24727;51.974;20.868;2023-07-29T14:42:27;32.20;1.00
38938;DHT22;24727;51.974;20.868;2023-07-29T14:44:54;31.60;1.00
38938;DHT22;24727;51.974;20.868;2023-07-29T14:47:20;30.80;1.00
38938;DHT22;24727;51.974;20.868;2023-07-29T14:49:45;30.20;1.00
38938;DHT22;24727;51.974;20.868;2023-07-29T14:52:11;30.40;1.00
38938;DHT22;24727;51.974;20.868;2023-07-29T14:54:37;30.30;1.00
38938;DHT22;24727;51.974;20.868;2023-07-29T14:57:06;30.30;1.00
38938;DHT22;24727;51.974;20.868;2023-07-29T14:59:32;30.60;1.00
38938;DHT22;24727;51.974;20.868;2023-07-29T15:01:58;30.90;1.00
38938;DHT22;24727;51.974;20.868;2023-07-29T15:04:24;31.00;1.00
38938;DHT22;24727;51.974;20.868;2023-07-29T15:06:50;30.50;1.00
38938;DHT22;24727;51.974;20.868;2023-07-29T15:09:18;30.40;1.00
38938;DHT22;24727;51.974;20.868;2023-07-29T15:11:43;30.50;1.00
38938;DHT22;24727;51.974;20.868;2023-07-29T15:14:09;30.70;1.00
38938;DHT22;24727;51.974;20.868;2023-07-29T15:16:35;30.70;1.00
38938;DHT22;24727;51.974;20.868;2023-07-29T15:19:03;31.00;1.00
38938;DHT22;24727;51.974;20.868;2023-07-29T15:21:30;30.90;1.00
38938;DHT22;24727;51.974;20.868;2023-07-29T15:23:55;30.90;1.00
38938;DHT22;24727;51.974;20.868;2023-07-29T15:26:22;30.80;1.00
38938;DHT22;24727;51.974;20.868;2023-07-29T15:28:49;30.40;1.00
38938;DHT22;24727;51.974;20.868;2023-07-29T15:31:16;30.50;1.00
38938;DHT22;24727;51.974;20.868;2023-07-29T15:33:43;30.70;1.00
38938;DHT22;24727;51.974;20.868;2023-07-29T15:36:09;30.60;1.00